Time;durP1;ratioP1;P1;durP2;ratioP2;P2;SDS_P1;SDS_P2;PMS_P1;PMS_P2;Temp;Humidity;BMP_temperature;BMP_pressure;BME280_temperature;BME280_humidity;BME280_pressure;Samples;Min_cycle;Max_cycle;Signal;HPM_P1;HPM_P2
2021/07/02 00:02:55;;;;;;;15.38;12.35;;;;;;;21.02;86.37;99990.56;1782751;80;21390;-53
2021/07/02 00:06:00;;;;;;;16.25;11.60;;;;;;;21.00;86.37;99984.39;1782772;80;21342;-53
2021/07/02 00:09:06;;;;;;;16.80;11.75;;;;;;;20.98;86.27;99977.41;1782693;80;21204;-54
2021/07/02 00:12:12;;;;;;;14.18;12.45;;;;;;;20.93;85.78;99973.11;1782676;80;21346;-54
2021/07/02 00:15:20;;;;;;;16.70;12.45;;;;;;;20.85;85.68;99971.60;1782609;80;21243;-54
2021/07/02 00:18:25;;;;;;;14.80;12.50;;;;;;;20.82;86.08;99969.30;1782605;80;21200;-53
2021/07/02 00:21:30;;;;;;;16.65;11.95;;;;;;;20.79;86.04;99964.23;1746217;81;21351;-54
2021/07/02 00:24:36;;;;;;;15.40;12.03;;;;;;;20.74;86.01;99949.69;1763610;81;21339;-54
2021/07/02 00:27:41;;;;;;;14.98;11.43;;;;;;;20.70;86.12;99947.14;1763637;81;21347;-53
2021/07/02 00:30:46;;;;;;;18.65;12.47;;;;;;;20.68;86.36;99940.97;1763648;81;21237;-53
2021/07/02 00:33:52;;;;;;;13.53;11.05;;;;;;;20.67;86.53;99944.01;1763584;81;21201;-54
2021/07/02 00:36:57;;;;;;;15.78;12.55;;;;;;;20.65;86.63;99947.58;1763612;81;21276;-53
2021/07/02 00:40:03;;;;;;;15.23;11.88;;;;;;;20.62;86.71;99952.26;1763590;81;21427;-53
2021/07/02 00:43:11;;;;;;;17.73;11.95;;;;;;;20.62;86.82;99948.09;1763578;81;21201;-53
2021/07/02 00:46:16;;;;;;;15.05;12.40;;;;;;;20.61;86.94;99950.02;1763600;81;21363;-54
2021/07/02 00:49:23;;;;;;;14.00;11.90;;;;;;;20.61;86.89;99947.23;1748060;81;21245;-53
2021/07/02 00:52:29;;;;;;;17.07;12.43;;;;;;;20.57;86.75;99941.89;1763556;81;21359;-53
2021/07/02 00:55:37;;;;;;;16.48;13.18;;;;;;;20.52;86.44;99951.53;1763470;81;21363;-53
2021/07/02 00:58:42;;;;;;;14.00;11.63;;;;;;;20.49;86.73;99954.81;1763517;81;21356;-53
2021/07/02 01:01:49;;;;;;;15.75;12.30;;;;;;;20.51;86.83;99958.73;1763559;81;21359;-53
2021/07/02 01:04:55;;;;;;;16.97;12.30;;;;;;;20.49;86.75;99956.74;1749354;81;21348;-53
2021/07/02 01:08:03;;;;;;;18.07;11.08;;;;;;;20.49;86.65;99952.57;1763746;81;21240;-53
2021/07/02 01:11:08;;;;;;;14.10;11.68;;;;;;;20.48;86.49;99957.31;1763593;81;21197;-54
2021/07/02 01:14:14;;;;;;;15.20;12.05;;;;;;;20.44;86.20;99958.03;1749085;81;21364;-53
2021/07/02 01:17:21;;;;;;;13.55;11.45;;;;;;;20.39;85.96;99964.92;1750161;81;21209;-54
2021/07/02 01:20:28;;;;;;;17.85;11.18;;;;;;;20.35;86.08;99963.72;1763625;81;21209;-53
2021/07/02 01:23:35;;;;;;;14.95;10.95;;;;;;;20.32;86.32;99965.61;1747531;81;21212;-53
2021/07/02 01:26:40;;;;;;;16.15;11.70;;;;;;;20.32;86.60;99964.22;1747038;82;21294;-53
2021/07/02 01:29:47;;;;;;;14.05;10.70;;;;;;;20.33;86.68;99954.23;1729886;82;21377;-53
2021/07/02 01:32:52;;;;;;;16.52;10.60;;;;;;;20.34;86.70;99958.69;1747081;82;21232;-53
2021/07/02 01:35:58;;;;;;;13.70;10.38;;;;;;;20.35;86.63;99956.22;1747014;82;21271;-53
2021/07/02 01:39:04;;;;;;;11.88;10.00;;;;;;;20.38;86.43;99957.11;1747061;82;21350;-53
2021/07/02 01:42:13;;;;;;;14.40;10.78;;;;;;;20.39;86.10;99954.63;1747018;82;21283;-53
2021/07/02 01:45:19;;;;;;;12.78;10.35;;;;;;;20.39;85.71;99951.02;1731435;82;21426;-52
2021/07/02 01:48:25;;;;;;;11.97;9.78;;;;;;;20.33;85.37;99951.98;1746903;82;21236;-53
2021/07/02 01:51:31;;;;;;;12.00;10.63;;;;;;;20.28;85.36;99958.30;1746963;82;21212;-54
2021/07/02 01:54:36;;;;;;;15.70;10.13;;;;;;;20.24;85.33;99955.73;1747002;82;21212;-53
2021/07/02 01:57:42;;;;;;;11.33;9.95;;;;;;;20.23;85.54;99954.59;1746959;82;21192;-53
2021/07/02 02:00:50;;;;;;;15.45;10.30;;;;;;;20.24;85.45;99962.69;1746946;82;21236;-53
2021/07/02 02:03:56;;;;;;;12.03;10.58;;;;;;;20.24;85.31;99950.71;1729897;82;21355;-52
2021/07/02 02:07:01;;;;;;;11.20;9.55;;;;;;;20.25;85.29;99953.24;1747016;82;21283;-52
2021/07/02 02:10:08;;;;;;;12.75;10.28;;;;;;;20.24;85.29;99955.73;1746892;82;21255;-52
2021/07/02 02:13:16;;;;;;;11.28;10.05;;;;;;;20.26;85.19;99949.92;1746990;82;21806;-53
2021/07/02 02:16:23;;;;;;;11.65;10.00;;;;;;;20.30;84.97;99950.56;1746862;82;21189;-52
2021/07/02 02:19:29;;;;;;;13.18;10.35;;;;;;;20.35;84.76;99952.59;1747093;82;21196;-52
2021/07/02 02:22:34;;;;;;;13.13;10.35;;;;;;;20.41;84.48;99951.59;1757226;78;21311;-52
2021/07/02 02:25:41;;;;;;;14.10;11.45;;;;;;;20.47;84.14;99952.00;1777595;80;21216;-52
2021/07/02 02:28:47;;;;;;;15.70;10.32;;;;;;;20.51;83.76;99947.61;1777722;80;21200;-53
2021/07/02 02:31:53;;;;;;;15.18;10.72;;;;;;;20.57;83.37;99945.21;1777765;80;21358;-53
2021/07/02 02:35:00;;;;;;;15.63;10.28;;;;;;;20.62;83.00;99948.94;1777672;80;21220;-53
2021/07/02 02:38:05;;;;;;;16.75;10.50;;;;;;;20.65;82.71;99947.58;1777752;80;21268;-53
2021/07/02 02:41:11;;;;;;;17.35;11.03;;;;;;;20.69;82.73;99957.13;1777681;80;21350;-53
2021/07/02 02:44:16;;;;;;;14.25;10.40;;;;;;;20.72;82.87;99953.84;1777694;80;21788;-53
2021/07/02 02:47:22;;;;;;;14.45;9.75;;;;;;;20.75;82.78;99952.80;1777630;80;21342;-55
2021/07/02 02:50:28;;;;;;;14.63;10.30;;;;;;;20.80;82.42;99952.03;1777605;80;21347;-54
2021/07/02 02:53:34;;;;;;;14.60;10.50;;;;;;;20.88;81.96;99963.28;1777732;80;21185;-54
2021/07/02 02:57:03;;;;;;;19.42;11.05;;;;;;;20.93;81.54;99964.19;1777704;80;21347;-54
2021/07/02 02:59:45;;;;;;;20.08;11.35;;;;;;;21.02;81.21;99971.08;1777695;80;21342;-54
2021/07/02 03:02:50;;;;;;;17.15;10.45;;;;;;;21.11;80.83;99964.52;1777683;80;21342;-54
2021/07/02 03:06:00;;;;;;;16.40;11.22;;;;;;;21.19;80.33;99957.98;1777749;80;21441;-54
2021/07/02 03:09:04;;;;;;;15.38;9.93;;;;;;;21.29;79.82;99967.04;1777823;80;21244;-55
2021/07/02 03:12:12;;;;;;;16.97;10.60;;;;;;;21.37;79.28;99970.78;1777689;80;21208;-55
2021/07/02 03:15:18;;;;;;;13.43;9.85;;;;;;;21.45;78.68;99973.98;1777659;80;21360;-55
2021/07/02 03:18:25;;;;;;;20.27;10.88;;;;;;;21.52;78.24;99976.02;1777772;80;21188;-55
2021/07/02 03:21:31;;;;;;;16.52;10.55;;;;;;;21.61;77.71;99980.61;1777607;80;21788;-54
2021/07/02 03:24:38;;;;;;;17.02;11.48;;;;;;;21.67;77.27;99983.22;1775366;80;21251;-55
2021/07/02 03:27:45;;;;;;;18.35;10.88;;;;;;;21.75;76.87;99980.02;1777708;80;21330;-54
2021/07/02 03:30:52;;;;;;;17.82;11.03;;;;;;;21.81;76.43;99987.34;1777640;80;21350;-54
2021/07/02 03:33:57;;;;;;;17.87;11.83;;;;;;;21.87;76.13;99981.27;1777715;80;21314;-55
2021/07/02 03:37:04;;;;;;;14.30;10.75;;;;;;;21.95;75.99;99970.52;1777465;80;21579;-54
2021/07/02 03:40:17;;;;;;;15.58;11.85;;;;;;;22.03;75.86;99971.45;1777371;80;21228;-55
2021/07/02 03:43:25;;;;;;;14.13;10.13;;;;;;;22.12;75.65;99974.61;1761624;80;21915;-54
2021/07/02 03:46:32;;;;;;;20.43;11.68;;;;;;;22.20;75.17;99975.00;1777786;80;22181;-54
2021/07/02 03:49:37;;;;;;;13.80;9.83;;;;;;;22.30;74.79;99972.03;1777689;80;21363;-55
2021/07/02 03:52:42;;;;;;;16.02;9.43;;;;;;;22.39;74.23;99971.88;1777600;80;21181;-55
2021/07/02 03:55:49;;;;;;;12.63;9.45;;;;;;;22.48;73.87;99959.12;1777224;80;21189;-55
2021/07/02 03:58:54;;;;;;;11.30;10.18;;;;;;;22.55;73.21;99964.81;1777308;80;21188;-55
2021/07/02 04:02:00;;;;;;;17.48;10.48;;;;;;;22.65;72.87;99961.27;1777339;80;21728;-55
2021/07/02 04:05:07;;;;;;;14.83;9.28;;;;;;;22.75;72.63;99965.57;1777114;80;21732;-54
2021/07/02 04:08:13;;;;;;;14.47;8.88;;;;;;;22.83;72.03;99973.45;1777486;80;21374;-54
2021/07/02 04:11:19;;;;;;;16.62;10.88;;;;;;;22.92;71.75;99968.52;1777647;80;21236;-54
2021/07/02 04:14:25;;;;;;;10.50;9.45;;;;;;;23.02;71.48;99964.97;1762040;80;21201;-54
2021/07/02 04:17:32;;;;;;;11.65;10.00;;;;;;;23.10;71.14;99970.06;1777780;80;21228;-55
2021/07/02 04:20:40;;;;;;;14.65;10.13;;;;;;;23.17;70.40;99970.12;1777615;80;21395;-55
2021/07/02 04:23:47;;;;;;;13.85;10.23;;;;;;;23.23;69.76;99975.20;1777322;80;21347;-55
2021/07/02 04:26:52;;;;;;;19.62;11.38;;;;;;;23.29;69.54;99967.99;1782163;80;21362;-55
2021/07/02 04:29:59;;;;;;;20.30;10.68;;;;;;;23.35;69.30;99974.47;1782531;80;21251;-55
2021/07/02 04:33:06;;;;;;;15.40;9.83;;;;;;;23.41;69.20;99971.45;1782655;80;21310;-55
2021/07/02 04:36:14;;;;;;;12.43;10.03;;;;;;;23.48;68.71;99980.42;1759254;80;21370;-54
2021/07/02 04:39:22;;;;;;;18.15;11.30;;;;;;;23.53;68.17;99970.67;1782705;80;21832;-55
2021/07/02 04:42:28;;;;;;;18.20;11.73;;;;;;;23.61;68.13;99977.70;1782285;80;21437;-55
2021/07/02 04:45:33;;;;;;;23.35;12.35;;;;;;;23.68;68.06;99976.91;1782236;80;21251;-54
2021/07/02 04:48:41;;;;;;;19.07;14.03;;;;;;;23.74;68.08;99968.02;1782100;80;21244;-57
2021/07/02 04:51:48;;;;;;;23.10;15.83;;;;;;;23.83;68.17;99981.20;1782098;80;21354;-56
2021/07/02 04:54:53;;;;;;;19.30;12.75;;;;;;;23.89;67.74;99975.92;1782050;80;21348;-55
2021/07/02 04:58:06;;;;;;;13.03;11.57;;;;;;;23.99;67.75;99974.58;1776338;80;21231;-52
2021/07/02 05:01:13;;;;;;;11.85;9.83;;;;;;;24.11;67.63;99968.76;1751872;80;21236;-53
2021/07/02 05:04:18;;;;;;;10.95;9.10;;;;;;;24.20;67.23;99960.11;1750947;82;21203;-51
2021/07/02 05:07:24;;;;;;;15.90;9.48;;;;;;;24.27;66.56;99968.55;1747385;80;21202;-55
2021/07/02 05:10:30;;;;;;;13.53;10.43;;;;;;;24.33;66.01;99960.45;1756407;80;21358;-56
2021/07/02 05:13:35;;;;;;;18.32;9.90;;;;;;;24.41;66.13;99954.31;1782108;80;21723;-56
2021/07/02 05:16:44;;;;;;;13.98;9.85;;;;;;;24.47;65.84;99951.80;1782120;80;21228;-49
2021/07/02 05:19:52;;;;;;;13.83;11.20;;;;;;;24.56;65.90;99945.93;1782587;80;21365;-49
2021/07/02 05:23:01;;;;;;;17.50;10.78;;;;;;;24.65;65.79;99944.28;1782018;80;21204;-49
2021/07/02 05:26:12;;;;;;;18.02;13.62;;;;;;;24.76;66.00;99946.55;1780683;80;21216;-49
2021/07/02 05:29:18;;;;;;;23.20;17.25;;;;;;;24.84;67.03;99942.66;1782329;80;21844;-49
2021/07/02 05:32:24;;;;;;;13.93;9.48;;;;;;;24.95;67.08;99945.73;1785386;80;21192;-49
2021/07/02 05:35:32;;;;;;;12.65;7.87;;;;;;;25.03;67.12;99940.13;1786366;80;21236;-50
2021/07/02 05:38:37;;;;;;;11.80;7.42;;;;;;;25.10;66.50;99932.84;1787076;80;21781;-49
2021/07/02 05:41:42;;;;;;;10.85;6.67;;;;;;;25.17;66.46;99935.62;1780930;80;21365;-49
2021/07/02 05:44:48;;;;;;;15.70;6.97;;;;;;;25.27;66.41;99931.97;1767350;80;21982;-49
2021/07/02 05:48:02;;;;;;;18.17;7.83;;;;;;;25.35;65.80;99931.44;1785457;80;21350;-51
2021/07/02 05:51:12;;;;;;;15.35;7.62;;;;;;;25.43;66.06;99929.45;1787184;80;21718;-51
2021/07/02 05:54:20;;;;;;;13.58;8.08;;;;;;;25.51;66.18;99935.89;1724235;81;21732;-51
2021/07/02 05:57:25;;;;;;;17.70;9.38;;;;;;;25.61;67.11;99934.47;1741560;81;21240;-50
2021/07/02 06:00:33;;;;;;;15.23;9.40;;;;;;;25.68;67.31;99937.80;1741766;82;21268;-50
2021/07/02 06:03:39;;;;;;;16.95;9.40;;;;;;;25.76;67.67;99935.80;1785247;79;21369;-50
2021/07/02 06:06:48;;;;;;;13.95;9.93;;;;;;;25.85;67.92;99944.75;1756003;81;21931;-50
2021/07/02 06:09:59;;;;;;;13.53;9.18;;;;;;;25.94;68.18;99943.60;1756615;81;21192;-50
2021/07/02 06:13:04;;;;;;;10.13;9.13;;;;;;;26.01;68.34;99942.75;1756193;81;21337;-50
2021/07/02 06:16:10;;;;;;;13.98;8.48;;;;;;;26.05;67.55;99944.69;1756596;81;21231;-49
2021/07/02 06:19:15;;;;;;;9.88;6.92;;;;;;;26.11;67.58;99946.37;1756727;81;21255;-50
2021/07/02 06:22:22;;;;;;;6.92;6.12;;;;;;;26.19;66.63;99947.72;1756691;81;21199;-50
2021/07/02 06:25:32;;;;;;;7.58;6.55;;;;;;;26.24;64.85;99948.52;1765892;79;21254;-50
2021/07/02 06:28:38;;;;;;;10.25;7.67;;;;;;;26.30;63.92;99948.80;1788478;79;21836;-49
2021/07/02 06:31:43;;;;;;;15.32;8.30;;;;;;;26.33;63.61;99955.23;1791915;78;21333;-49
2021/07/02 06:34:54;;;;;;;11.88;7.72;;;;;;;26.41;64.85;99946.75;1787144;80;21338;-49
2021/07/02 06:38:01;;;;;;;13.00;8.00;;;;;;;26.51;64.75;99954.28;1780741;80;21347;-50
2021/07/02 06:41:07;;;;;;;8.33;7.17;;;;;;;26.61;65.59;99951.41;1757121;80;21807;-50
2021/07/02 06:44:14;;;;;;;9.08;6.97;;;;;;;26.68;64.75;99944.37;1744369;79;21331;-50
2021/07/02 06:47:19;;;;;;;7.97;7.05;;;;;;;26.75;63.50;99953.28;1706480;82;21516;-49
2021/07/02 06:50:27;;;;;;;11.38;7.20;;;;;;;26.80;62.23;99953.25;1721077;82;21898;-50
2021/07/02 06:53:33;;;;;;;15.53;7.25;;;;;;;26.82;62.05;99955.21;1741499;81;21770;-51
2021/07/02 07:00:03;;;;;;;16.48;7.35;;;;;;;26.87;62.05;99948.71;1721683;82;21204;-50
2021/07/02 07:03:14;;;;;;;12.07;7.90;;;;;;;26.94;62.22;99951.45;1744286;82;21315;-52
2021/07/02 07:06:20;;;;;;;10.10;7.72;;;;;;;26.99;62.30;99952.00;1749001;81;21390;-53
2021/07/02 07:09:27;;;;;;;10.32;7.60;;;;;;;27.01;61.30;99953.93;1745897;81;21207;-49
2021/07/02 07:12:34;;;;;;;11.70;8.20;;;;;;;27.02;61.18;99956.45;1748979;82;21224;-51
2021/07/02 07:15:41;;;;;;;9.98;7.67;;;;;;;27.05;61.14;99946.02;1709074;81;21228;-51
2021/07/02 07:18:47;;;;;;;12.37;8.23;;;;;;;27.07;61.24;99947.98;1720351;82;21721;-51
2021/07/02 07:21:56;;;;;;;8.05;7.25;;;;;;;27.09;60.99;99948.53;1734736;82;21737;-51
2021/07/02 07:25:01;;;;;;;8.60;7.17;;;;;;;27.13;61.00;99948.20;1732260;81;21232;-51
2021/07/02 07:28:07;;;;;;;8.20;7.30;;;;;;;27.15;61.32;99948.75;1750019;79;21292;-51
2021/07/02 07:31:15;;;;;;;9.75;7.20;;;;;;;27.19;60.78;99954.07;1704778;82;21387;-53
2021/07/02 07:34:35;;;;;;;12.98;7.50;;;;;;;27.23;59.65;99955.14;1712990;84;21892;-51
2021/07/02 07:37:34;;;;;;;11.68;6.37;;;;;;;27.26;58.81;99957.92;1746202;81;21213;-50
2021/07/02 07:40:38;;;;;;;7.50;6.20;;;;;;;27.28;58.08;99950.06;1713168;83;21394;-49
2021/07/02 07:43:45;;;;;;;12.18;5.72;;;;;;;27.31;56.98;99956.50;1705904;82;21398;-51
2021/07/02 07:46:51;;;;;;;9.88;6.55;;;;;;;27.33;56.89;99953.69;1706095;84;21849;-50
2021/07/02 07:49:57;;;;;;;8.43;6.30;;;;;;;27.42;57.71;99951.05;1723820;81;21233;-51
2021/07/02 07:53:09;;;;;;;5.95;5.05;;;;;;;27.53;56.65;99951.21;1740908;82;21217;-51
2021/07/02 07:56:14;;;;;;;9.33;5.22;;;;;;;27.60;54.48;99950.31;1738923;81;21386;-55
2021/07/02 07:59:20;;;;;;;11.00;5.72;;;;;;;27.64;53.71;99945.75;1707230;83;21226;-52
2021/07/02 08:02:30;;;;;;;8.15;5.75;;;;;;;27.68;54.77;99942.63;1747083;81;21370;-53
2021/07/02 08:05:37;;;;;;;8.75;5.20;;;;;;;27.74;54.70;99940.87;1743177;80;21872;-54
2021/07/02 08:08:45;;;;;;;11.48;8.00;;;;;;;27.83;54.80;99945.25;1694701;83;21255;-53
2021/07/02 08:11:51;;;;;;;10.65;5.67;;;;;;;27.89;54.74;99943.26;1712017;84;21208;-54
2021/07/02 08:14:57;;;;;;;8.83;5.65;;;;;;;27.96;54.04;99942.31;1712061;84;21351;-52
2021/07/02 08:18:04;;;;;;;6.72;5.40;;;;;;;28.03;52.69;99944.20;1713226;82;21394;-50
2021/07/02 08:21:10;;;;;;;5.92;5.10;;;;;;;28.08;53.31;99941.33;1745566;82;21907;-50
2021/07/02 08:24:16;;;;;;;6.58;5.22;;;;;;;28.14;54.05;99928.30;1711431;84;21220;-51
2021/07/02 08:27:24;;;;;;;5.47;4.58;;;;;;;28.25;53.83;99938.84;1745388;82;21256;-50
2021/07/02 08:30:29;;;;;;;7.72;4.95;;;;;;;28.32;52.62;99933.09;1706099;80;21613;-51
2021/07/02 08:33:36;;;;;;;10.00;4.72;;;;;;;28.36;52.43;99937.56;1718198;83;21216;-49
2021/07/02 08:36:44;;;;;;;7.45;4.90;;;;;;;28.41;51.71;99929.05;1704494;82;21770;-50
2021/07/02 08:39:52;;;;;;;8.33;5.40;;;;;;;28.39;50.71;99927.94;1716311;83;21276;-51
2021/07/02 08:42:59;;;;;;;6.67;4.83;;;;;;;28.37;50.90;99928.80;1699088;83;21220;-52
2021/07/02 08:46:06;;;;;;;6.92;4.87;;;;;;;28.38;51.37;99929.09;1692578;84;21797;-51
2021/07/02 08:49:15;;;;;;;7.92;4.65;;;;;;;28.42;50.79;99932.12;1705083;83;21232;-51
2021/07/02 08:52:20;;;;;;;7.72;5.03;;;;;;;28.49;50.86;99926.98;1703831;84;21261;-51
2021/07/02 08:55:29;;;;;;;9.15;4.40;;;;;;;28.56;50.50;99925.45;1703740;84;21223;-49
2021/07/02 08:58:35;;;;;;;8.95;4.75;;;;;;;28.66;50.66;99913.20;1702324;84;21197;-50
2021/07/02 09:01:48;;;;;;;6.92;4.55;;;;;;;28.72;50.41;99912.81;1709559;83;21268;-50
2021/07/02 09:04:55;;;;;;;8.35;5.30;;;;;;;28.82;50.19;99912.66;1702156;84;21236;-50
2021/07/02 09:08:00;;;;;;;8.13;4.00;;;;;;;28.93;50.77;99918.95;1716852;83;21196;-53
2021/07/02 09:11:06;;;;;;;11.18;4.62;;;;;;;29.04;48.79;99912.00;1731575;83;21223;-52
2021/07/02 09:14:13;;;;;;;7.28;4.33;;;;;;;29.12;47.05;99909.91;1701548;83;21196;-51
2021/07/02 09:17:24;;;;;;;8.13;4.12;;;;;;;29.17;47.37;99909.83;1703293;84;21214;-51
2021/07/02 09:20:36;;;;;;;5.97;4.08;;;;;;;29.20;47.24;99899.34;1704413;84;21231;-52
2021/07/02 09:23:48;;;;;;;6.67;3.45;;;;;;;29.27;48.64;99901.76;1689534;84;21211;-52
2021/07/02 09:26:53;;;;;;;5.20;3.27;;;;;;;29.35;46.79;99894.84;1703867;84;21228;-52
2021/07/02 09:30:18;;;;;;;6.42;3.92;;;;;;;29.36;45.17;99893.68;1702915;84;21234;-53
2021/07/02 09:33:31;;;;;;;5.37;3.60;;;;;;;29.41;45.06;99898.38;1750551;81;21833;-50
2021/07/02 09:36:37;;;;;;;6.00;4.05;;;;;;;29.47;46.02;99892.34;1750626;82;21227;-52
2021/07/02 09:39:43;;;;;;;5.55;4.17;;;;;;;29.55;46.71;99890.20;1791428;79;21910;-53
2021/07/02 09:42:49;;;;;;;7.17;3.83;;;;;;;29.64;46.25;99891.70;1806558;79;21177;-51
2021/07/02 09:46:05;;;;;;;9.93;4.20;;;;;;;29.68;46.32;99889.41;1786851;79;21321;-54
2021/07/02 09:49:10;;;;;;;6.92;4.17;;;;;;;29.75;46.99;99891.23;1792777;79;21359;-54
2021/07/02 09:52:16;;;;;;;8.88;4.22;;;;;;;29.79;47.25;99889.47;1712855;82;21922;-53
2021/07/02 09:55:24;;;;;;;10.90;5.22;;;;;;;29.87;47.72;99887.32;1707616;81;21241;-52
2021/07/02 09:58:36;;;;;;;5.12;4.05;;;;;;;30.10;47.92;99883.41;1723295;82;21272;-52
2021/07/02 10:01:45;;;;;;;5.03;4.00;;;;;;;30.10;47.92;99883.41;1743307;80;21354;-53
2021/07/02 10:05:09;;;;;;;5.70;4.22;;;;;;;30.22;46.97;99882.31;1734004;82;21758;-53
2021/07/02 10:08:18;;;;;;;6.50;4.22;;;;;;;30.22;46.97;99882.31;1713834;83;21209;-51
2021/07/02 10:11:28;;;;;;;7.08;4.15;;;;;;;30.29;47.21;99879.91;1713187;83;21762;-51
2021/07/02 10:14:33;;;;;;;7.47;4.00;;;;;;;30.57;47.32;99882.89;1719351;83;21960;-52
2021/07/02 10:17:39;;;;;;;5.87;4.58;;;;;;;30.57;47.32;99882.89;1719613;83;21360;-53
2021/07/02 10:20:52;;;;;;;5.95;4.53;;;;;;;30.70;46.92;99884.59;1691042;85;21249;-54
2021/07/02 10:24:01;;;;;;;6.40;4.50;;;;;;;30.78;46.47;99874.78;1695833;83;21203;-52
2021/07/02 10:27:07;;;;;;;8.58;4.62;;;;;;;30.95;46.73;99869.28;1787241;80;21357;-53
2021/07/02 10:30:17;;;;;;;7.75;4.60;;;;;;;30.95;46.73;99869.28;1750162;81;21252;-53
2021/07/02 10:33:24;;;;;;;10.45;5.03;;;;;;;31.08;45.44;99869.76;1749599;81;21212;-53
2021/07/02 10:36:39;;;;;;;10.88;4.92;;;;;;;31.04;45.67;99863.66;1698702;83;21265;-53
2021/07/02 10:39:46;;;;;;;10.55;4.47;;;;;;;31.00;45.71;99857.81;1699911;83;21194;-54
2021/07/02 10:43:13;;;;;;;9.93;5.08;;;;;;;31.04;45.21;99848.11;1749017;82;21721;-52
2021/07/02 10:46:21;;;;;;;8.43;5.05;;;;;;;31.12;45.68;99854.40;1733185;82;21218;-50
2021/07/02 10:49:27;;;;;;;6.62;4.80;;;;;;;31.17;45.14;99857.94;1781612;80;21579;-50
2021/07/02 10:52:40;;;;;;;8.38;4.72;;;;;;;31.25;44.58;99856.31;1750640;81;21194;-51
2021/07/02 10:55:45;;;;;;;7.15;3.70;;;;;;;31.41;43.30;99855.58;1774886;80;21378;-52
2021/07/02 10:58:58;;;;;;;9.05;3.70;;;;;;;31.50;41.25;99856.47;1761050;79;21358;-50
2021/07/02 11:02:17;;;;;;;8.85;4.20;;;;;;;31.59;40.57;99857.33;1753986;82;21240;-51
2021/07/02 11:05:37;;;;;;;5.03;3.90;;;;;;;31.68;40.17;99858.19;1690080;85;21256;-53
2021/07/02 11:08:52;;;;;;;8.33;3.98;;;;;;;31.79;40.68;99863.00;1691872;85;21225;-53
2021/07/02 11:12:16;;;;;;;6.12;3.55;;;;;;;31.92;39.49;99852.16;1691959;84;21250;-51
2021/07/02 11:15:23;;;;;;;;;;;;;;;32.06;39.86;99857.11;1694575;85;21298;-51
2021/07/02 11:18:31;;;;;;;8.25;3.47;;;;;;;32.24;38.54;99853.72;1720794;83;20203;-52
2021/07/02 11:21:37;;;;;;;7.72;4.00;;;;;;;32.36;38.33;99849.64;1721019;83;21733;-52
2021/07/02 11:25:19;;;;;;;3.95;3.55;;;;;;;32.44;37.58;99855.36;1720967;83;21732;-54
2021/07/02 11:28:24;;;;;;;5.28;3.20;;;;;;;32.49;36.53;99848.08;1720806;83;21764;-53
2021/07/02 11:31:41;;;;;;;6.85;3.37;;;;;;;32.56;36.27;99845.59;1720552;83;21311;-52
2021/07/02 11:34:48;;;;;;;6.12;3.20;;;;;;;32.62;36.45;99849.11;1705869;84;21275;-53
2021/07/02 11:38:14;;;;;;;7.03;3.33;;;;;;;32.73;37.54;99845.58;1688402;84;21789;-51
2021/07/02 11:41:30;;;;;;;9.23;3.90;;;;;;;32.81;37.66;99841.90;1744806;82;21366;-51
2021/07/02 11:44:38;;;;;;;5.40;3.40;;;;;;;32.81;36.71;99843.32;1742547;82;21737;-52
2021/07/02 11:47:46;;;;;;;4.65;3.40;;;;;;;32.78;37.63;99842.58;1744867;82;21871;-52
2021/07/02 11:51:08;;;;;;;5.05;3.20;;;;;;;32.89;38.53;99836.83;1717649;82;21228;-52
2021/07/02 11:54:15;;;;;;;3.95;3.10;;;;;;;32.98;37.32;99837.64;1743737;82;21796;-52
2021/07/02 11:57:29;;;;;;;4.35;2.83;;;;;;;33.03;36.34;99828.15;1744854;82;21224;-52
2021/07/02 12:00:44;;;;;;;5.83;3.20;;;;;;;33.07;35.45;99829.12;1743357;82;21228;-52
2021/07/02 12:04:12;;;;;;;5.00;3.15;;;;;;;33.07;35.88;99827.70;1744647;82;21362;-52
2021/07/02 12:07:19;;;;;;;7.12;3.50;;;;;;;33.08;36.56;99825.95;1760533;80;21233;-51
2021/07/02 12:10:25;;;;;;;4.83;3.00;;;;;;;33.11;36.84;99816.75;1799207;80;21869;-52
2021/07/02 12:13:34;;;;;;;6.53;2.98;;;;;;;33.13;35.65;99822.94;1799297;79;21714;-53
2021/07/02 12:16:54;;;;;;;4.67;3.17;;;;;;;33.10;35.24;99825.03;1789266;79;21407;-54
2021/07/02 12:20:01;;;;;;;6.20;3.00;;;;;;;33.07;35.20;99822.88;1772184;81;21934;-53
2021/07/02 12:23:12;;;;;;;7.00;2.92;;;;;;;33.05;35.62;99828.05;1774399;81;21283;-54
2021/07/02 12:26:27;;;;;;;6.72;3.30;;;;;;;33.03;35.25;99823.89;1774852;79;21442;-50
2021/07/02 12:29:35;;;;;;;4.45;2.90;;;;;;;32.96;34.48;99821.57;1772290;80;21378;-53
2021/07/02 12:32:42;;;;;;;3.90;3.10;;;;;;;32.86;34.21;99823.30;1774892;81;21390;-53
2021/07/02 12:35:48;;;;;;;5.90;2.87;;;;;;;32.87;34.26;99820.70;1764476;79;21344;-51
2021/07/02 12:39:18;;;;;;;4.20;3.12;;;;;;;32.87;33.61;99819.28;1762932;80;21409;-50
2021/07/02 12:42:27;;;;;;;6.30;3.45;;;;;;;32.85;33.38;99820.80;1750804;82;21215;-51
2021/07/02 12:45:33;;;;;;;4.55;3.12;;;;;;;32.88;33.59;99820.13;1767230;79;21906;-50
2021/07/02 12:48:40;;;;;;;6.58;3.00;;;;;;;32.88;33.98;99813.91;1781242;80;22207;-50
2021/07/02 12:55:25;;;;;;;6.97;3.25;;;;;;;32.84;34.57;99822.79;1750454;80;21196;-52
2021/07/02 12:58:41;;;;;;;5.20;3.30;;;;;;;32.88;34.39;99810.20;1750793;82;21793;-52
2021/07/02 13:01:56;;;;;;;5.22;3.20;;;;;;;32.89;33.99;99811.88;1751177;80;21229;-54
2021/07/02 13:05:07;;;;;;;5.70;3.15;;;;;;;32.88;34.41;99810.20;1751014;80;21559;-55
2021/07/02 13:08:15;;;;;;;8.00;3.58;;;;;;;32.91;34.06;99796.79;1751270;82;21212;-54
2021/07/02 13:11:27;;;;;;;4.25;3.30;;;;;;;32.93;34.04;99805.23;1754301;80;21208;-53
2021/07/02 13:14:40;;;;;;;6.08;3.60;;;;;;;33.01;34.07;99800.70;1750993;82;21904;-54
2021/07/02 13:17:53;;;;;;;7.90;4.28;;;;;;;33.13;34.71;99795.14;1750861;82;21346;-54
2021/07/02 13:21:12;;;;;;;9.10;3.25;;;;;;;33.15;34.74;99796.48;1750927;82;21385;-54
2021/07/02 13:24:18;;;;;;;9.90;4.28;;;;;;;33.10;34.08;99790.14;1750735;82;21211;-55
2021/07/02 13:27:27;;;;;;;7.75;4.05;;;;;;;33.01;34.60;99795.86;1730748;82;21709;-55
2021/07/02 13:30:42;;;;;;;7.33;3.30;;;;;;;32.98;34.46;99790.84;1729194;82;21231;-55
2021/07/02 13:33:49;;;;;;;6.10;3.08;;;;;;;32.91;34.14;99790.54;1751686;82;21385;-54
2021/07/02 13:37:02;;;;;;;7.42;3.87;;;;;;;32.82;34.43;99788.28;1762015;79;21354;-54
2021/07/02 13:40:10;;;;;;;6.37;3.72;;;;;;;32.79;35.14;99790.95;1782059;80;21879;-53
2021/07/02 13:43:24;;;;;;;9.55;4.28;;;;;;;32.72;34.85;99791.46;1782042;80;21722;-54
2021/07/02 13:46:38;;;;;;;4.62;3.27;;;;;;;32.63;35.22;99786.40;1795491;79;21166;-54
2021/07/02 13:49:47;;;;;;;7.05;3.65;;;;;;;32.58;35.39;99785.73;1789649;79;21706;-54
2021/07/02 13:52:54;;;;;;;7.05;4.00;;;;;;;32.55;35.57;99785.82;1786473;79;21344;-53
2021/07/02 13:56:03;;;;;;;7.53;3.70;;;;;;;32.52;35.55;99781.41;1776076;79;21730;-54
2021/07/02 13:59:10;;;;;;;4.95;3.65;;;;;;;32.47;35.56;99780.15;1765972;81;21343;-55
2021/07/02 14:02:17;;;;;;;6.22;4.12;;;;;;;32.49;36.24;99785.72;1757154;80;21263;-53
2021/07/02 14:05:24;;;;;;;10.40;4.90;;;;;;;32.53;36.31;99790.14;1762945;80;21812;-54
2021/07/02 14:08:29;;;;;;;27.00;7.42;;;;;;;32.51;36.32;99774.89;1747487;81;21184;-55
2021/07/02 14:11:35;;;;;;;5.97;3.92;;;;;;;32.52;36.57;99772.33;1738550;82;21771;-54
2021/07/02 14:14:41;;;;;;;5.47;3.75;;;;;;;32.53;36.19;99778.80;1709026;84;21731;-56
2021/07/02 14:17:46;;;;;;;10.98;5.10;;;;;;;32.51;36.87;99771.25;1755758;80;21378;-55
2021/07/02 14:20:53;;;;;;;5.17;3.85;;;;;;;32.48;36.81;99762.80;1750945;80;21373;-55
2021/07/02 14:23:59;;;;;;;10.55;5.90;;;;;;;32.50;37.17;99760.48;1780331;80;21284;-54
2021/07/02 14:27:05;;;;;;;7.83;4.22;;;;;;;32.49;37.10;99758.80;1781755;80;21409;-55
2021/07/02 14:30:16;;;;;;;9.50;4.78;;;;;;;32.49;37.50;99753.12;1780954;80;21385;-54
2021/07/02 14:33:22;;;;;;;6.70;4.42;;;;;;;32.52;37.89;99743.98;1782283;80;21394;-55
2021/07/02 14:36:27;;;;;;;5.60;4.10;;;;;;;32.58;38.99;99741.78;1780763;79;21351;-55
2021/07/02 14:39:34;;;;;;;5.50;4.03;;;;;;;32.65;39.49;99732.20;1711790;83;21426;-55
2021/07/02 14:42:40;;;;;;;7.22;5.97;;;;;;;32.69;38.79;99729.77;1777086;80;21212;-55
2021/07/02 14:45:45;;;;;;;7.92;4.55;;;;;;;32.71;37.60;99733.09;1711233;83;21758;-52